الصفحة الرئيسية
METAR-TAF:

METAR-TAF

مطار :

ترات, تايلاند

دائرة عرض: 12-16-28N, خط طول: 102-19-08E, ارتفاع: 32 متر

مراقبة الطقس الحالي

تاريخ ووقت الإصدار 1ساعة و 29 دقيقة قبل الساعة 23:00UTC
ريح 2 عقدة من الشمال الشرقي
درجة الحرارة 28°درجة مئوية
الرطوبة 94%
ضغط 1007 hPa
الرؤية: 5000 متر
غيوم قليلة على ارتفاع 2000 قدم
غشاء,

METAR: VTBO 182300Z 05002KT 5000 BR FEW020 28/27 Q1007

زمن: 07:29 (00:29 UTC)

توقعات

تاريخ ووقت الإصدار 1ساعة و 29 دقيقة قبل الساعة 23:00UTC
التوقعات صالحة من19 الساعة 00 UTC إلى 19 الساعة 24 UTC
ريح عقدة من الشمال
الرؤية: 4000 متر
غيوم قليلة على ارتفاع 2000 قدم
غشاء
أصبح
من 19 الساعة 01 UTC إلى 19 الساعة 03 UTC
ريح 10 عقدة من الجنوب الغربي
الرؤية: 9000 متر
أصبح
من 19 الساعة 20 UTC إلى 19 الساعة 22 UTC
ريح عقدة من الشمال
الرؤية: 4000 متر
غشاء,

TAF: VTBO 182300Z 1900/1924 00000KT 4000 BR FEW020 BECMG 1901/1903 22010KT 9000 NSW BECMG 1920/1922 00000KT 4000 BR

أرصاد الطقس والتوقعات من أكثر من 4000 مطار (تقارير الطقس للمطار METAR والتنبؤ بالطقس بالمطارTAF).

المحطات المتاحة هي النقط الصفراء والحمراء على الخريطة.

حرك المؤشر فوق النقطة لمعرفة اسم المحطة.

ثم انقر لمعرفة أرصاد وتوقعات الطقس.

لتغيير الخارطة: اضغط على الأزرار الخضراء مع رمز الصليب الأسود للتكبير. على الزر الأخضر مع شرطة للتصغير، أو على الأسهم الخضراء للخرائط المجاورة.


METAR-TAF: